sensor_id;sensor_type;location;lat;lon;timestamp;pressure;altitude;pressure_sealevel;temperature;humidity
30819;BME280;17546;42.674;23.284;2023-02-20T00:00:58;95053.00;;;16.44;36.82
30819;BME280;17546;42.674;23.284;2023-02-20T00:03:23;95049.41;;;16.24;37.21
30819;BME280;17546;42.674;23.284;2023-02-20T00:05:49;95055.47;;;16.09;37.65
30819;BME280;17546;42.674;23.284;2023-02-20T00:08:14;95053.44;;;16.29;37.42
30819;BME280;17546;42.674;23.284;2023-02-20T00:10:39;95055.13;;;16.57;36.87
30819;BME280;17546;42.674;23.284;2023-02-20T00:13:05;95045.03;;;16.29;37.36
30819;BME280;17546;42.674;23.284;2023-02-20T00:15:31;95062.13;;;16.44;37.24
30819;BME280;17546;42.674;23.284;2023-02-20T00:17:56;95055.56;;;15.98;38.08
30819;BME280;17546;42.674;23.284;2023-02-20T00:20:24;95048.06;;;16.12;37.96
30819;BME280;17546;42.674;23.284;2023-02-20T00:22:50;95041.91;;;16.14;38.09
30819;BME280;17546;42.674;23.284;2023-02-20T00:25:18;95040.09;;;15.97;38.31
30819;BME280;17546;42.674;23.284;2023-02-20T00:27:44;95041.88;;;16.19;38.21
30819;BME280;17546;42.674;23.284;2023-02-20T00:30:21;95051.66;;;16.07;38.45
30819;BME280;17546;42.674;23.284;2023-02-20T00:32:48;95049.03;;;16.15;38.42
30819;BME280;17546;42.674;23.284;2023-02-20T00:35:14;95036.66;;;16.48;37.83
30819;BME280;17546;42.674;23.284;2023-02-20T00:37:40;95039.75;;;16.44;37.72
30819;BME280;17546;42.674;23.284;2023-02-20T00:40:06;95038.84;;;16.17;38.29
30819;BME280;17546;42.674;23.284;2023-02-20T00:42:32;95039.81;;;16.20;38.28
30819;BME280;17546;42.674;23.284;2023-02-20T00:44:58;95034.84;;;16.13;38.25
30819;BME280;17546;42.674;23.284;2023-02-20T00:47:23;95039.94;;;16.52;37.81
30819;BME280;17546;42.674;23.284;2023-02-20T00:49:49;95055.56;;;15.98;38.77
30819;BME280;17546;42.674;23.284;2023-02-20T00:52:14;95059.38;;;16.01;38.53
30819;BME280;17546;42.674;23.284;2023-02-20T00:54:40;95065.72;;;16.20;38.49
30819;BME280;17546;42.674;23.284;2023-02-20T00:57:06;95057.25;;;16.07;38.56
30819;BME280;17546;42.674;23.284;2023-02-20T00:59:31;95053.81;;;16.39;37.72
30819;BME280;17546;42.674;23.284;2023-02-20T01:01:57;95063.06;;;15.60;39.08
30819;BME280;17546;42.674;23.284;2023-02-20T01:04:22;95062.47;;;15.73;39.25
30819;BME280;17546;42.674;23.284;2023-02-20T01:06:48;95076.53;;;15.56;39.33
30819;BME280;17546;42.674;23.284;2023-02-20T01:09:14;95088.00;;;15.82;39.21
30819;BME280;17546;42.674;23.284;2023-02-20T01:11:43;95082.75;;;15.73;39.44
30819;BME280;17546;42.674;23.284;2023-02-20T01:14:11;95089.88;;;15.68;39.40
30819;BME280;17546;42.674;23.284;2023-02-20T01:16:43;95090.00;;;15.57;39.64
30819;BME280;17546;42.674;23.284;2023-02-20T01:19:09;95079.63;;;15.52;39.91
30819;BME280;17546;42.674;23.284;2023-02-20T01:21:34;95080.25;;;15.39;40.23
30819;BME280;17546;42.674;23.284;2023-02-20T01:23:59;95081.25;;;15.42;40.32
30819;BME280;17546;42.674;23.284;2023-02-20T01:26:25;95076.75;;;15.33;40.33
30819;BME280;17546;42.674;23.284;2023-02-20T01:28:50;95092.50;;;14.95;41.38
30819;BME280;17546;42.674;23.284;2023-02-20T01:31:16;95084.66;;;15.29;40.70
30819;BME280;17546;42.674;23.284;2023-02-20T01:33:42;95097.66;;;15.51;40.28
30819;BME280;17546;42.674;23.284;2023-02-20T01:36:08;95097.63;;;15.21;40.70
30819;BME280;17546;42.674;23.284;2023-02-20T01:38:33;95118.28;;;15.42;40.56
30819;BME280;17546;42.674;23.284;2023-02-20T01:40:59;95112.38;;;15.52;40.36
30819;BME280;17546;42.674;23.284;2023-02-20T01:43:24;95112.22;;;15.38;40.74
30819;BME280;17546;42.674;23.284;2023-02-20T01:45:50;95108.25;;;15.28;40.97
30819;BME280;17546;42.674;23.284;2023-02-20T01:48:23;95126.75;;;15.31;40.91
30819;BME280;17546;42.674;23.284;2023-02-20T01:50:58;95102.13;;;14.99;41.89
30819;BME280;17546;42.674;23.284;2023-02-20T01:53:26;95109.25;;;14.42;43.19
30819;BME280;17546;42.674;23.284;2023-02-20T01:56:00;95105.38;;;14.62;43.03
30819;BME280;17546;42.674;23.284;2023-02-20T01:58:48;95129.25;;;14.40;43.83
30819;BME280;17546;42.674;23.284;2023-02-20T02:01:14;95135.91;;;14.20;44.14
30819;BME280;17546;42.674;23.284;2023-02-20T02:03:42;95140.06;;;13.85;44.77
30819;BME280;17546;42.674;23.284;2023-02-20T02:06:11;95125.59;;;13.98;44.71
30819;BME280;17546;42.674;23.284;2023-02-20T02:08:38;95136.50;;;13.85;45.12
30819;BME280;17546;42.674;23.284;2023-02-20T02:13:36;95140.16;;;14.38;43.32
30819;BME280;17546;42.674;23.284;2023-02-20T02:18:54;95133.97;;;14.68;42.49
30819;BME280;17546;42.674;23.284;2023-02-20T02:35:26;95154.44;;;13.95;42.86
30819;BME280;17546;42.674;23.284;2023-02-20T02:38:02;95161.81;;;13.81;43.21
30819;BME280;17546;42.674;23.284;2023-02-20T02:43:51;95151.69;;;13.84;43.22
30819;BME280;17546;42.674;23.284;2023-02-20T02:48:52;95151.44;;;13.88;43.03
30819;BME280;17546;42.674;23.284;2023-02-20T02:51:25;95165.59;;;13.95;42.97
30819;BME280;17546;42.674;23.284;2023-02-20T02:54:12;95163.03;;;14.14;42.52
30819;BME280;17546;42.674;23.284;2023-02-20T02:56:40;95163.53;;;14.18;42.33
30819;BME280;17546;42.674;23.284;2023-02-20T02:59:08;95165.53;;;14.23;42.37
30819;BME280;17546;42.674;23.284;2023-02-20T03:01:37;95155.94;;;14.24;42.26
30819;BME280;17546;42.674;23.284;2023-02-20T03:04:06;95150.09;;;14.22;42.13
30819;BME280;17546;42.674;23.284;2023-02-20T03:06:36;95162.50;;;14.21;42.19
30819;BME280;17546;42.674;23.284;2023-02-20T03:09:16;95158.50;;;14.11;42.46
30819;BME280;17546;42.674;23.284;2023-02-20T03:11:44;95153.13;;;14.24;41.93
30819;BME280;17546;42.674;23.284;2023-02-20T03:14:18;95160.81;;;13.73;42.98
30819;BME280;17546;42.674;23.284;2023-02-20T03:17:09;95156.00;;;13.79;42.59
30819;BME280;17546;42.674;23.284;2023-02-20T03:19:50;95164.34;;;13.91;42.56
30819;BME280;17546;42.674;23.284;2023-02-20T03:22:33;95173.47;;;13.74;42.92
30819;BME280;17546;42.674;23.284;2023-02-20T03:25:06;95176.22;;;14.08;41.87
30819;BME280;17546;42.674;23.284;2023-02-20T03:30:22;95192.94;;;14.08;42.01
30819;BME280;17546;42.674;23.284;2023-02-20T03:32:55;95191.94;;;13.89;42.12
30819;BME280;17546;42.674;23.284;2023-02-20T03:35:42;95188.66;;;13.68;42.38
30819;BME280;17546;42.674;23.284;2023-02-20T03:38:30;95198.50;;;13.97;41.71
30819;BME280;17546;42.674;23.284;2023-02-20T03:41:15;95204.09;;;13.97;42.06
30819;BME280;17546;42.674;23.284;2023-02-20T03:44:03;95198.78;;;13.71;42.25
30819;BME280;17546;42.674;23.284;2023-02-20T03:46:31;95191.94;;;13.55;42.62
30819;BME280;17546;42.674;23.284;2023-02-20T03:49:10;95205.13;;;13.77;41.99
30819;BME280;17546;42.674;23.284;2023-02-20T03:51:38;95199.28;;;13.63;42.17
30819;BME280;17546;42.674;23.284;2023-02-20T03:54:23;95198.53;;;13.85;41.75
30819;BME280;17546;42.674;23.284;2023-02-20T03:56:52;95206.78;;;13.18;43.10
30819;BME280;17546;42.674;23.284;2023-02-20T04:02:39;95234.47;;;13.72;41.91
30819;BME280;17546;42.674;23.284;2023-02-20T04:05:17;95235.22;;;13.50;42.25
30819;BME280;17546;42.674;23.284;2023-02-20T04:07:49;95233.44;;;13.75;41.82
30819;BME280;17546;42.674;23.284;2023-02-20T04:10:22;95228.91;;;13.61;41.93
30819;BME280;17546;42.674;23.284;2023-02-20T04:12:50;95221.31;;;13.84;41.62
30819;BME280;17546;42.674;23.284;2023-02-20T04:15:18;95216.75;;;13.64;41.79
30819;BME280;17546;42.674;23.284;2023-02-20T04:17:59;95227.63;;;13.68;41.87
30819;BME280;17546;42.674;23.284;2023-02-20T04:20:27;95212.22;;;13.89;41.41
30819;BME280;17546;42.674;23.284;2023-02-20T04:22:57;95221.06;;;13.71;41.49
30819;BME280;17546;42.674;23.284;2023-02-20T04:25:33;95214.94;;;13.33;42.35
30819;BME280;17546;42.674;23.284;2023-02-20T04:28:04;95226.38;;;13.40;42.33
30819;BME280;17546;42.674;23.284;2023-02-20T04:30:30;95237.97;;;13.33;42.93
30819;BME280;17546;42.674;23.284;2023-02-20T04:32:55;95226.56;;;13.31;42.86
30819;BME280;17546;42.674;23.284;2023-02-20T04:35:21;95241.03;;;13.52;42.55
30819;BME280;17546;42.674;23.284;2023-02-20T04:37:47;95249.84;;;13.34;42.63
30819;BME280;17546;42.674;23.284;2023-02-20T04:40:15;95253.69;;;13.53;42.13
30819;BME280;17546;42.674;23.284;2023-02-20T04:42:42;95234.31;;;13.05;42.97
30819;BME280;17546;42.674;23.284;2023-02-20T04:45:07;95219.03;;;13.43;41.82
30819;BME280;17546;42.674;23.284;2023-02-20T04:47:36;95227.31;;;13.26;41.71
30819;BME280;17546;42.674;23.284;2023-02-20T04:50:01;95234.56;;;12.90;41.92
30819;BME280;17546;42.674;23.284;2023-02-20T04:52:27;95231.66;;;13.44;40.83
30819;BME280;17546;42.674;23.284;2023-02-20T04:54:53;95228.06;;;13.27;40.96
30819;BME280;17546;42.674;23.284;2023-02-20T04:57:18;95227.59;;;13.28;40.77
30819;BME280;17546;42.674;23.284;2023-02-20T04:59:44;95244.75;;;13.27;40.76
30819;BME280;17546;42.674;23.284;2023-02-20T05:02:10;95246.06;;;13.31;40.50
30819;BME280;17546;42.674;23.284;2023-02-20T05:04:35;95261.44;;;13.21;40.69
30819;BME280;17546;42.674;23.284;2023-02-20T05:07:01;95260.88;;;13.06;40.43
30819;BME280;17546;42.674;23.284;2023-02-20T05:09:27;95271.19;;;12.88;40.89
30819;BME280;17546;42.674;23.284;2023-02-20T05:11:52;95277.34;;;13.15;39.79
30819;BME280;17546;42.674;23.284;2023-02-20T05:14:19;95262.88;;;12.99;40.08
30819;BME280;17546;42.674;23.284;2023-02-20T05:16:45;95278.00;;;12.87;40.12
30819;BME280;17546;42.674;23.284;2023-02-20T05:19:12;95268.09;;;12.75;40.11
30819;BME280;17546;42.674;23.284;2023-02-20T05:21:40;95286.81;;;12.80;40.11
30819;BME280;17546;42.674;23.284;2023-02-20T05:24:24;95283.81;;;12.89;39.99
30819;BME280;17546;42.674;23.284;2023-02-20T05:26:51;95292.19;;;13.00;39.73
30819;BME280;17546;42.674;23.284;2023-02-20T05:29:17;95291.78;;;13.19;39.36
30819;BME280;17546;42.674;23.284;2023-02-20T05:31:42;95289.09;;;13.53;38.62
30819;BME280;17546;42.674;23.284;2023-02-20T05:34:08;95289.06;;;13.30;39.29
30819;BME280;17546;42.674;23.284;2023-02-20T05:36:34;95289.09;;;13.41;39.44
30819;BME280;17546;42.674;23.284;2023-02-20T05:38:59;95306.69;;;13.16;40.34
30819;BME280;17546;42.674;23.284;2023-02-20T05:41:25;95311.72;;;13.06;40.64
30819;BME280;17546;42.674;23.284;2023-02-20T05:43:50;95307.69;;;13.13;40.62
30819;BME280;17546;42.674;23.284;2023-02-20T05:46:16;95309.44;;;13.10;40.77
30819;BME280;17546;42.674;23.284;2023-02-20T05:48:42;95306.41;;;13.14;40.79
30819;BME280;17546;42.674;23.284;2023-02-20T05:51:07;95307.16;;;13.09;40.86
30819;BME280;17546;42.674;23.284;2023-02-20T05:53:33;95303.81;;;12.93;41.07
30819;BME280;17546;42.674;23.284;2023-02-20T05:55:58;95299.78;;;12.94;41.11
30819;BME280;17546;42.674;23.284;2023-02-20T05:58:24;95297.91;;;13.29;40.63
30819;BME280;17546;42.674;23.284;2023-02-20T06:00:50;95301.81;;;13.05;40.96
30819;BME280;17546;42.674;23.284;2023-02-20T06:03:16;95301.50;;;13.40;40.14
30819;BME280;17546;42.674;23.284;2023-02-20T06:05:42;95303.53;;;12.91;40.52
30819;BME280;17546;42.674;23.284;2023-02-20T06:08:08;95322.97;;;13.34;39.34
30819;BME280;17546;42.674;23.284;2023-02-20T06:10:33;95315.66;;;13.42;38.90
30819;BME280;17546;42.674;23.284;2023-02-20T06:12:59;95315.78;;;13.11;38.86
30819;BME280;17546;42.674;23.284;2023-02-20T06:15:25;95335.03;;;13.20;38.39
30819;BME280;17546;42.674;23.284;2023-02-20T06:17:50;95334.06;;;13.29;38.62
30819;BME280;17546;42.674;23.284;2023-02-20T06:20:16;95333.63;;;13.41;38.46
30819;BME280;17546;42.674;23.284;2023-02-20T06:22:42;95317.53;;;13.14;38.93
30819;BME280;17546;42.674;23.284;2023-02-20T06:25:07;95321.09;;;13.20;40.10
30819;BME280;17546;42.674;23.284;2023-02-20T06:27:33;95318.03;;;13.89;37.83
30819;BME280;17546;42.674;23.284;2023-02-20T06:29:58;95325.88;;;13.96;37.75
30819;BME280;17546;42.674;23.284;2023-02-20T06:32:24;95332.41;;;13.05;38.44
30819;BME280;17546;42.674;23.284;2023-02-20T06:34:49;95317.81;;;13.16;38.09
30819;BME280;17546;42.674;23.284;2023-02-20T06:37:15;95328.50;;;13.29;37.98
30819;BME280;17546;42.674;23.284;2023-02-20T06:39:42;95344.25;;;13.49;37.88
30819;BME280;17546;42.674;23.284;2023-02-20T06:42:10;95347.56;;;12.98;38.54
30819;BME280;17546;42.674;23.284;2023-02-20T06:44:36;95327.53;;;13.37;37.70
30819;BME280;17546;42.674;23.284;2023-02-20T06:47:01;95345.13;;;13.12;38.00
30819;BME280;17546;42.674;23.284;2023-02-20T06:49:34;95353.91;;;13.05;38.01
30819;BME280;17546;42.674;23.284;2023-02-20T06:52:06;95333.31;;;13.34;37.82
30819;BME280;17546;42.674;23.284;2023-02-20T06:54:32;95336.28;;;13.19;37.98
30819;BME280;17546;42.674;23.284;2023-02-20T06:56:58;95355.50;;;13.17;38.30
30819;BME280;17546;42.674;23.284;2023-02-20T06:59:24;95349.03;;;13.42;37.81
30819;BME280;17546;42.674;23.284;2023-02-20T07:01:50;95352.94;;;13.08;38.43
30819;BME280;17546;42.674;23.284;2023-02-20T07:04:22;95353.66;;;13.57;37.57
30819;BME280;17546;42.674;23.284;2023-02-20T07:06:48;95353.25;;;13.21;37.90
30819;BME280;17546;42.674;23.284;2023-02-20T07:09:15;95373.84;;;13.40;37.35
30819;BME280;17546;42.674;23.284;2023-02-20T07:11:41;95366.47;;;13.32;36.91
30819;BME280;17546;42.674;23.284;2023-02-20T07:14:06;95359.19;;;13.51;36.97
30819;BME280;17546;42.674;23.284;2023-02-20T07:16:32;95382.38;;;13.31;36.45
30819;BME280;17546;42.674;23.284;2023-02-20T07:18:57;95362.47;;;12.90;36.40
30819;BME280;17546;42.674;23.284;2023-02-20T07:21:23;95378.94;;;13.05;36.51
30819;BME280;17546;42.674;23.284;2023-02-20T07:23:49;95364.97;;;13.36;35.85
30819;BME280;17546;42.674;23.284;2023-02-20T07:26:26;95376.09;;;12.93;36.07
30819;BME280;17546;42.674;23.284;2023-02-20T07:28:53;95372.56;;;13.41;35.26
30819;BME280;17546;42.674;23.284;2023-02-20T07:31:19;95377.19;;;13.61;34.76
30819;BME280;17546;42.674;23.284;2023-02-20T07:33:45;95368.19;;;12.75;35.82
30819;BME280;17546;42.674;23.284;2023-02-20T07:36:11;95388.00;;;13.37;35.07
30819;BME280;17546;42.674;23.284;2023-02-20T07:38:37;95370.22;;;13.23;35.02
30819;BME280;17546;42.674;23.284;2023-02-20T07:41:03;95364.53;;;13.55;34.25
30819;BME280;17546;42.674;23.284;2023-02-20T07:43:29;95365.41;;;12.80;34.96
30819;BME280;17546;42.674;23.284;2023-02-20T07:45:54;95363.66;;;12.83;35.08
30819;BME280;17546;42.674;23.284;2023-02-20T07:48:20;95394.81;;;12.93;35.06
30819;BME280;17546;42.674;23.284;2023-02-20T07:50:45;95400.50;;;13.10;34.73
30819;BME280;17546;42.674;23.284;2023-02-20T07:53:15;95384.66;;;12.84;34.97
30819;BME280;17546;42.674;23.284;2023-02-20T07:55:41;95393.13;;;13.07;35.05
30819;BME280;17546;42.674;23.284;2023-02-20T07:58:06;95386.34;;;12.70;35.27
30819;BME280;17546;42.674;23.284;2023-02-20T08:00:32;95408.72;;;12.93;35.02
30819;BME280;17546;42.674;23.284;2023-02-20T08:02:57;95383.78;;;13.10;34.67
30819;BME280;17546;42.674;23.284;2023-02-20T08:05:24;95414.91;;;13.14;34.87
30819;BME280;17546;42.674;23.284;2023-02-20T08:07:50;95408.88;;;13.70;33.68
30819;BME280;17546;42.674;23.284;2023-02-20T08:10:19;95410.06;;;13.52;33.83
30819;BME280;17546;42.674;23.284;2023-02-20T08:12:46;95402.03;;;13.16;34.19
30819;BME280;17546;42.674;23.284;2023-02-20T08:15:12;95420.25;;;13.77;33.26
30819;BME280;17546;42.674;23.284;2023-02-20T08:17:40;95416.91;;;13.62;33.05
30819;BME280;17546;42.674;23.284;2023-02-20T08:20:07;95404.72;;;13.48;33.88
30819;BME280;17546;42.674;23.284;2023-02-20T08:22:33;95415.94;;;13.16;34.32
30819;BME280;17546;42.674;23.284;2023-02-20T08:24:59;95410.47;;;13.33;33.86
30819;BME280;17546;42.674;23.284;2023-02-20T08:27:25;95442.47;;;13.55;34.17
30819;BME280;17546;42.674;23.284;2023-02-20T08:29:52;95421.97;;;13.58;33.65
30819;BME280;17546;42.674;23.284;2023-02-20T08:32:18;95413.78;;;13.32;33.94
30819;BME280;17546;42.674;23.284;2023-02-20T08:34:44;95402.41;;;13.35;34.32
30819;BME280;17546;42.674;23.284;2023-02-20T08:37:09;95403.00;;;13.08;34.79
30819;BME280;17546;42.674;23.284;2023-02-20T08:39:35;95421.06;;;13.29;34.49
30819;BME280;17546;42.674;23.284;2023-02-20T08:42:01;95413.56;;;13.47;34.38
30819;BME280;17546;42.674;23.284;2023-02-20T08:44:27;95403.22;;;13.47;34.56
30819;BME280;17546;42.674;23.284;2023-02-20T08:46:52;95407.66;;;13.88;33.48
30819;BME280;17546;42.674;23.284;2023-02-20T08:49:18;95396.84;;;13.35;34.29
30819;BME280;17546;42.674;23.284;2023-02-20T08:51:45;95396.59;;;13.44;34.28
30819;BME280;17546;42.674;23.284;2023-02-20T08:54:14;95390.09;;;13.64;33.98
30819;BME280;17546;42.674;23.284;2023-02-20T08:56:43;95391.41;;;13.69;33.75
30819;BME280;17546;42.674;23.284;2023-02-20T08:59:08;95388.94;;;13.94;33.00
30819;BME280;17546;42.674;23.284;2023-02-20T09:01:34;95401.84;;;13.97;33.02
30819;BME280;17546;42.674;23.284;2023-02-20T09:04:00;95387.88;;;13.85;33.26
30819;BME280;17546;42.674;23.284;2023-02-20T09:06:26;95379.78;;;13.88;33.29
30819;BME280;17546;42.674;23.284;2023-02-20T09:08:53;95398.06;;;14.11;32.90
30819;BME280;17546;42.674;23.284;2023-02-20T09:11:19;95400.59;;;13.98;33.09
30819;BME280;17546;42.674;23.284;2023-02-20T09:13:46;95397.03;;;14.03;32.90
30819;BME280;17546;42.674;23.284;2023-02-20T09:16:15;95399.09;;;14.19;32.50
30819;BME280;17546;42.674;23.284;2023-02-20T09:18:42;95385.13;;;13.91;32.80
30819;BME280;17546;42.674;23.284;2023-02-20T09:21:09;95369.16;;;13.80;32.84
30819;BME280;17546;42.674;23.284;2023-02-20T09:23:35;95380.97;;;13.47;33.26
30819;BME280;17546;42.674;23.284;2023-02-20T09:26:07;95417.31;;;13.98;33.15
30819;BME280;17546;42.674;23.284;2023-02-20T09:28:37;95377.13;;;13.44;33.53
30819;BME280;17546;42.674;23.284;2023-02-20T09:31:03;95386.13;;;13.82;33.11
30819;BME280;17546;42.674;23.284;2023-02-20T09:33:28;95392.16;;;13.75;33.61
30819;BME280;17546;42.674;23.284;2023-02-20T09:35:57;95391.94;;;13.84;33.30
30819;BME280;17546;42.674;23.284;2023-02-20T09:38:23;95386.19;;;14.27;32.72
30819;BME280;17546;42.674;23.284;2023-02-20T09:40:57;95394.53;;;14.95;31.97
30819;BME280;17546;42.674;23.284;2023-02-20T09:51:39;95386.09;;;15.18;31.72
30819;BME280;17546;42.674;23.284;2023-02-20T09:54:17;95389.56;;;15.52;31.28
30819;BME280;17546;42.674;23.284;2023-02-20T09:56:51;95382.00;;;15.36;30.83
30819;BME280;17546;42.674;23.284;2023-02-20T09:59:26;95398.97;;;15.43;30.44
30819;BME280;17546;42.674;23.284;2023-02-20T10:02:00;95415.19;;;15.50;29.97
30819;BME280;17546;42.674;23.284;2023-02-20T10:04:37;95400.13;;;15.70;29.19
30819;BME280;17546;42.674;23.284;2023-02-20T10:07:15;95400.47;;;15.44;29.42
30819;BME280;17546;42.674;23.284;2023-02-20T10:09:45;95410.66;;;15.42;29.17
30819;BME280;17546;42.674;23.284;2023-02-20T10:12:28;95406.75;;;15.62;28.98
30819;BME280;17546;42.674;23.284;2023-02-20T10:15:19;95403.94;;;15.67;29.02
30819;BME280;17546;42.674;23.284;2023-02-20T10:26:09;95395.31;;;15.71;27.77
30819;BME280;17546;42.674;23.284;2023-02-20T10:28:36;95381.09;;;16.52;27.05
30819;BME280;17546;42.674;23.284;2023-02-20T10:33:53;95376.84;;;16.04;27.25
30819;BME280;17546;42.674;23.284;2023-02-20T10:36:27;95347.16;;;16.01;26.70
30819;BME280;17546;42.674;23.284;2023-02-20T10:41:43;95349.78;;;16.23;27.27
30819;BME280;17546;42.674;23.284;2023-02-20T10:44:18;95352.41;;;15.68;27.90
30819;BME280;17546;42.674;23.284;2023-02-20T10:49:34;95356.72;;;16.11;27.29
30819;BME280;17546;42.674;23.284;2023-02-20T10:52:08;95353.44;;;16.07;27.57
30819;BME280;17546;42.674;23.284;2023-02-20T10:54:46;95366.56;;;16.84;27.00
30819;BME280;17546;42.674;23.284;2023-02-20T10:57:18;95350.97;;;16.64;26.94
30819;BME280;17546;42.674;23.284;2023-02-20T11:02:26;95360.41;;;16.91;27.15
30819;BME280;17546;42.674;23.284;2023-02-20T11:05:02;95360.69;;;16.27;27.84
30819;BME280;17546;42.674;23.284;2023-02-20T11:07:30;95357.00;;;16.73;27.44
30819;BME280;17546;42.674;23.284;2023-02-20T11:09:55;95349.56;;;17.31;26.99
30819;BME280;17546;42.674;23.284;2023-02-20T11:14:47;95334.38;;;17.83;26.46
30819;BME280;17546;42.674;23.284;2023-02-20T11:17:17;95323.75;;;16.94;27.31
30819;BME280;17546;42.674;23.284;2023-02-20T11:20:03;95337.88;;;16.78;27.46
30819;BME280;17546;42.674;23.284;2023-02-20T11:22:57;95344.94;;;16.84;27.32
30819;BME280;17546;42.674;23.284;2023-02-20T11:25:27;95349.75;;;16.89;27.53
30819;BME280;17546;42.674;23.284;2023-02-20T11:27:56;95355.38;;;17.33;27.20
30819;BME280;17546;42.674;23.284;2023-02-20T11:30:31;95344.19;;;16.84;27.70
30819;BME280;17546;42.674;23.284;2023-02-20T11:33:17;95317.72;;;16.60;28.35
30819;BME280;17546;42.674;23.284;2023-02-20T11:35:55;95335.38;;;16.44;28.62
30819;BME280;17546;42.674;23.284;2023-02-20T11:44:24;95309.44;;;16.73;27.82
30819;BME280;17546;42.674;23.284;2023-02-20T11:49:40;95329.41;;;16.28;28.40
30819;BME280;17546;42.674;23.284;2023-02-20T11:52:09;95308.19;;;16.14;28.30
30819;BME280;17546;42.674;23.284;2023-02-20T11:54:39;95308.09;;;15.89;28.55
30819;BME280;17546;42.674;23.284;2023-02-20T11:57:18;95304.00;;;15.49;29.04
30819;BME280;17546;42.674;23.284;2023-02-20T11:59:49;95274.91;;;16.16;28.41
30819;BME280;17546;42.674;23.284;2023-02-20T12:04:59;95311.88;;;15.98;28.50
30819;BME280;17546;42.674;23.284;2023-02-20T12:09:54;95314.72;;;15.86;28.13
30819;BME280;17546;42.674;23.284;2023-02-20T12:12:22;95297.06;;;16.63;27.30
30819;BME280;17546;42.674;23.284;2023-02-20T12:14:51;95284.69;;;16.28;27.52
30819;BME280;17546;42.674;23.284;2023-02-20T12:17:43;95306.47;;;16.36;27.74
30819;BME280;17546;42.674;23.284;2023-02-20T12:20:18;95311.63;;;17.11;27.03
30819;BME280;17546;42.674;23.284;2023-02-20T12:26:21;95296.19;;;16.49;27.44
30819;BME280;17546;42.674;23.284;2023-02-20T12:34:49;95310.44;;;16.16;28.00
30819;BME280;17546;42.674;23.284;2023-02-20T12:40:27;95283.34;;;16.35;27.98
30819;BME280;17546;42.674;23.284;2023-02-20T12:43:09;95299.66;;;16.31;27.96
30819;BME280;17546;42.674;23.284;2023-02-20T12:50:59;95316.25;;;16.53;27.71
30819;BME280;17546;42.674;23.284;2023-02-20T12:56:29;95315.56;;;16.72;27.42
30819;BME280;17546;42.674;23.284;2023-02-20T13:01:54;95298.94;;;16.55;27.96
30819;BME280;17546;42.674;23.284;2023-02-20T13:04:34;95291.75;;;16.90;27.52
30819;BME280;17546;42.674;23.284;2023-02-20T13:07:23;95299.53;;;16.72;27.70
30819;BME280;17546;42.674;23.284;2023-02-20T13:12:21;95285.25;;;16.21;28.34
30819;BME280;17546;42.674;23.284;2023-02-20T13:19:59;95326.34;;;15.96;28.21
30819;BME280;17546;42.674;23.284;2023-02-20T13:22:30;95310.72;;;15.76;28.42
30819;BME280;17546;42.674;23.284;2023-02-20T13:31:05;95306.66;;;16.98;27.76
30819;BME280;17546;42.674;23.284;2023-02-20T13:33:31;95317.00;;;16.54;28.18
30819;BME280;17546;42.674;23.284;2023-02-20T13:35:58;95328.56;;;16.69;28.08
30819;BME280;17546;42.674;23.284;2023-02-20T13:38:27;95318.13;;;17.19;27.70
30819;BME280;17546;42.674;23.284;2023-02-20T13:54:09;95325.53;;;16.67;28.17
30819;BME280;17546;42.674;23.284;2023-02-20T13:56:51;95340.44;;;16.15;29.44
30819;BME280;17546;42.674;23.284;2023-02-20T13:59:19;95335.56;;;16.21;29.52
30819;BME280;17546;42.674;23.284;2023-02-20T14:04:28;95321.44;;;16.08;29.59
30819;BME280;17546;42.674;23.284;2023-02-20T14:06:55;95321.13;;;16.17;29.81
30819;BME280;17546;42.674;23.284;2023-02-20T14:09:24;95311.53;;;15.71;30.01
30819;BME280;17546;42.674;23.284;2023-02-20T14:11:53;95308.59;;;15.46;30.03
30819;BME280;17546;42.674;23.284;2023-02-20T14:14:31;95315.41;;;15.57;30.16
30819;BME280;17546;42.674;23.284;2023-02-20T14:17:14;95311.94;;;15.86;30.22
30819;BME280;17546;42.674;23.284;2023-02-20T14:19:45;95309.25;;;15.11;31.06
30819;BME280;17546;42.674;23.284;2023-02-20T14:22:32;95307.09;;;15.87;30.17
30819;BME280;17546;42.674;23.284;2023-02-20T14:27:29;95336.00;;;15.95;30.09
30819;BME280;17546;42.674;23.284;2023-02-20T14:30:20;95333.50;;;15.91;30.42
30819;BME280;17546;42.674;23.284;2023-02-20T14:32:50;95335.69;;;16.04;30.22
30819;BME280;17546;42.674;23.284;2023-02-20T14:35:48;95348.69;;;15.49;31.13
30819;BME280;17546;42.674;23.284;2023-02-20T14:40:52;95335.47;;;15.49;31.49
30819;BME280;17546;42.674;23.284;2023-02-20T14:43:40;95329.06;;;15.07;31.62
30819;BME280;17546;42.674;23.284;2023-02-20T14:46:14;95332.09;;;15.09;31.24
30819;BME280;17546;42.674;23.284;2023-02-20T14:48:44;95342.84;;;15.53;30.75
30819;BME280;17546;42.674;23.284;2023-02-20T14:51:13;95343.59;;;15.53;30.96
30819;BME280;17546;42.674;23.284;2023-02-20T14:53:40;95330.03;;;15.21;31.50
30819;BME280;17546;42.674;23.284;2023-02-20T14:58:44;95339.81;;;15.50;31.42
30819;BME280;17546;42.674;23.284;2023-02-20T15:01:33;95305.88;;;15.29;31.35
30819;BME280;17546;42.674;23.284;2023-02-20T15:04:10;95327.63;;;14.84;31.96
30819;BME280;17546;42.674;23.284;2023-02-20T15:06:39;95356.03;;;14.65;32.65
30819;BME280;17546;42.674;23.284;2023-02-20T15:09:08;95368.06;;;15.19;31.88
30819;BME280;17546;42.674;23.284;2023-02-20T15:11:36;95378.69;;;15.37;31.87
30819;BME280;17546;42.674;23.284;2023-02-20T15:14:22;95380.94;;;15.50;31.60
30819;BME280;17546;42.674;23.284;2023-02-20T15:19:38;95376.84;;;15.51;31.58
30819;BME280;17546;42.674;23.284;2023-02-20T15:22:05;95360.06;;;14.93;32.54